sensor_id;sensor_type;location;lat;lon;timestamp;temperature;humidity
37322;DHT22;23697;48.684;9.032;2023-08-31T00:58:01;12.80;89.90
37322;DHT22;23697;48.684;9.032;2023-08-31T05:42:44;12.10;90.80
37322;DHT22;23697;48.684;9.032;2023-08-31T05:45:13;12.20;90.90
37322;DHT22;23697;48.684;9.032;2023-08-31T05:47:41;12.20;90.80
37322;DHT22;23697;48.684;9.032;2023-08-31T05:50:08;12.30;90.80
37322;DHT22;23697;48.684;9.032;2023-08-31T05:52:35;12.30;90.70
37322;DHT22;23697;48.684;9.032;2023-08-31T05:55:20;12.30;90.70
37322;DHT22;23697;48.684;9.032;2023-08-31T05:58:03;12.40;90.70
37322;DHT22;23697;48.684;9.032;2023-08-31T06:00:30;12.40;90.60
37322;DHT22;23697;48.684;9.032;2023-08-31T06:02:57;12.40;90.50
37322;DHT22;23697;48.684;9.032;2023-08-31T06:05:42;12.40;90.50
37322;DHT22;23697;48.684;9.032;2023-08-31T06:08:09;12.40;90.50
37322;DHT22;23697;48.684;9.032;2023-08-31T06:10:39;12.40;90.50
37322;DHT22;23697;48.684;9.032;2023-08-31T06:13:07;12.40;90.50
37322;DHT22;23697;48.684;9.032;2023-08-31T06:15:34;12.40;90.60
37322;DHT22;23697;48.684;9.032;2023-08-31T06:18:17;12.50;90.60
37322;DHT22;23697;48.684;9.032;2023-08-31T06:21:11;12.50;90.50
37322;DHT22;23697;48.684;9.032;2023-08-31T06:23:44;12.50;90.50
37322;DHT22;23697;48.684;9.032;2023-08-31T06:26:48;12.50;90.50
37322;DHT22;23697;48.684;9.032;2023-08-31T06:29:34;12.60;90.50
37322;DHT22;23697;48.684;9.032;2023-08-31T06:32:01;12.60;90.50
37322;DHT22;23697;48.684;9.032;2023-08-31T06:34:50;12.60;90.50
37322;DHT22;23697;48.684;9.032;2023-08-31T06:37:30;12.70;90.40
37322;DHT22;23697;48.684;9.032;2023-08-31T06:40:06;12.80;90.50
37322;DHT22;23697;48.684;9.032;2023-08-31T06:43:02;12.80;90.50
37322;DHT22;23697;48.684;9.032;2023-08-31T06:45:32;12.80;90.30
37322;DHT22;23697;48.684;9.032;2023-08-31T06:48:02;12.90;90.30
37322;DHT22;23697;48.684;9.032;2023-08-31T06:50:30;13.10;90.20
37322;DHT22;23697;48.684;9.032;2023-08-31T06:52:57;13.20;90.30
37322;DHT22;23697;48.684;9.032;2023-08-31T06:55:26;13.40;90.00
37322;DHT22;23697;48.684;9.032;2023-08-31T06:57:53;13.50;89.90
37322;DHT22;23697;48.684;9.032;2023-08-31T07:00:23;13.60;89.60
37322;DHT22;23697;48.684;9.032;2023-08-31T07:02:52;13.80;89.40
37322;DHT22;23697;48.684;9.032;2023-08-31T07:05:26;13.80;88.60
37322;DHT22;23697;48.684;9.032;2023-08-31T07:07:55;13.90;87.70
37322;DHT22;23697;48.684;9.032;2023-08-31T07:10:22;14.00;87.70
37322;DHT22;23697;48.684;9.032;2023-08-31T07:12:51;14.00;87.30
37322;DHT22;23697;48.684;9.032;2023-08-31T07:15:18;14.10;87.00
37322;DHT22;23697;48.684;9.032;2023-08-31T07:17:45;14.30;87.80
37322;DHT22;23697;48.684;9.032;2023-08-31T07:20:13;14.40;87.30
37322;DHT22;23697;48.684;9.032;2023-08-31T07:22:40;14.60;87.70
37322;DHT22;23697;48.684;9.032;2023-08-31T07:25:08;14.70;85.80
37322;DHT22;23697;48.684;9.032;2023-08-31T07:27:35;15.00;86.00
37322;DHT22;23697;48.684;9.032;2023-08-31T07:30:02;15.10;84.20
37322;DHT22;23697;48.684;9.032;2023-08-31T07:32:29;15.10;82.90
37322;DHT22;23697;48.684;9.032;2023-08-31T07:34:56;15.20;83.90
37322;DHT22;23697;48.684;9.032;2023-08-31T07:37:24;15.10;83.30
37322;DHT22;23697;48.684;9.032;2023-08-31T07:39:51;15.10;84.40
37322;DHT22;23697;48.684;9.032;2023-08-31T07:42:18;15.20;84.80
37322;DHT22;23697;48.684;9.032;2023-08-31T07:44:45;15.30;83.80
37322;DHT22;23697;48.684;9.032;2023-08-31T07:47:12;15.30;82.70
37322;DHT22;23697;48.684;9.032;2023-08-31T07:49:39;15.50;84.00
37322;DHT22;23697;48.684;9.032;2023-08-31T07:52:06;15.70;82.60
37322;DHT22;23697;48.684;9.032;2023-08-31T07:54:34;16.00;82.20
37322;DHT22;23697;48.684;9.032;2023-08-31T07:57:01;16.10;79.80
37322;DHT22;23697;48.684;9.032;2023-08-31T07:59:28;16.10;80.40
37322;DHT22;23697;48.684;9.032;2023-08-31T08:01:55;16.20;80.50
37322;DHT22;23697;48.684;9.032;2023-08-31T08:04:30;16.10;77.60
37322;DHT22;23697;48.684;9.032;2023-08-31T08:06:59;16.10;77.40
37322;DHT22;23697;48.684;9.032;2023-08-31T08:09:31;16.20;77.30
37322;DHT22;23697;48.684;9.032;2023-08-31T08:11:59;16.30;74.70
37322;DHT22;23697;48.684;9.032;2023-08-31T08:14:26;16.40;73.30
37322;DHT22;23697;48.684;9.032;2023-08-31T08:16:53;16.60;75.10
37322;DHT22;23697;48.684;9.032;2023-08-31T08:19:23;16.80;74.70
37322;DHT22;23697;48.684;9.032;2023-08-31T08:21:50;17.00;74.80
37322;DHT22;23697;48.684;9.032;2023-08-31T08:24:18;16.90;70.90
37322;DHT22;23697;48.684;9.032;2023-08-31T08:26:44;17.00;72.40
37322;DHT22;23697;48.684;9.032;2023-08-31T08:29:13;17.10;68.90
37322;DHT22;23697;48.684;9.032;2023-08-31T08:31:41;17.20;67.10
37322;DHT22;23697;48.684;9.032;2023-08-31T08:34:14;17.20;68.90
37322;DHT22;23697;48.684;9.032;2023-08-31T08:36:43;17.10;64.00
37322;DHT22;23697;48.684;9.032;2023-08-31T08:39:10;16.90;66.60
37322;DHT22;23697;48.684;9.032;2023-08-31T08:41:42;17.00;67.90
37322;DHT22;23697;48.684;9.032;2023-08-31T08:44:16;17.20;66.30
37322;DHT22;23697;48.684;9.032;2023-08-31T08:46:45;17.10;68.80
37322;DHT22;23697;48.684;9.032;2023-08-31T08:49:22;17.20;69.10
37322;DHT22;23697;48.684;9.032;2023-08-31T08:52:03;17.10;68.10
37322;DHT22;23697;48.684;9.032;2023-08-31T08:54:33;17.00;67.80
37322;DHT22;23697;48.684;9.032;2023-08-31T08:57:21;16.70;63.30
37322;DHT22;23697;48.684;9.032;2023-08-31T08:59:59;16.60;64.80
37322;DHT22;23697;48.684;9.032;2023-08-31T09:03:00;16.50;66.40
37322;DHT22;23697;48.684;9.032;2023-08-31T09:05:32;16.70;68.00
37322;DHT22;23697;48.684;9.032;2023-08-31T09:08:09;17.10;64.30
37322;DHT22;23697;48.684;9.032;2023-08-31T09:10:49;17.10;65.60
37322;DHT22;23697;48.684;9.032;2023-08-31T09:13:16;17.00;65.50
37322;DHT22;23697;48.684;9.032;2023-08-31T09:15:55;17.00;66.90
37322;DHT22;23697;48.684;9.032;2023-08-31T09:18:25;17.40;64.50
37322;DHT22;23697;48.684;9.032;2023-08-31T09:20:57;17.60;62.70
37322;DHT22;23697;48.684;9.032;2023-08-31T09:23:29;18.10;67.20
37322;DHT22;23697;48.684;9.032;2023-08-31T09:26:02;18.30;61.60
37322;DHT22;23697;48.684;9.032;2023-08-31T09:29:04;18.60;58.80
37322;DHT22;23697;48.684;9.032;2023-08-31T09:31:32;19.00;61.20
37322;DHT22;23697;48.684;9.032;2023-08-31T09:34:11;19.10;59.10
37322;DHT22;23697;48.684;9.032;2023-08-31T09:36:53;18.70;54.80
37322;DHT22;23697;48.684;9.032;2023-08-31T09:42:36;17.70;56.40
37322;DHT22;23697;48.684;9.032;2023-08-31T09:45:46;17.70;60.30
37322;DHT22;23697;48.684;9.032;2023-08-31T09:48:48;17.80;61.30
37322;DHT22;23697;48.684;9.032;2023-08-31T09:52:14;17.30;57.80
37322;DHT22;23697;48.684;9.032;2023-08-31T10:01:34;17.10;58.20
37322;DHT22;23697;48.684;9.032;2023-08-31T10:04:30;17.20;61.80
37322;DHT22;23697;48.684;9.032;2023-08-31T10:19:48;16.80;58.70
37322;DHT22;23697;48.684;9.032;2023-08-31T10:26:39;16.80;59.80
37322;DHT22;23697;48.684;9.032;2023-08-31T10:46:43;17.50;59.40
37322;DHT22;23697;48.684;9.032;2023-08-31T10:49:14;17.40;60.10
37322;DHT22;23697;48.684;9.032;2023-08-31T10:51:44;17.90;59.80
37322;DHT22;23697;48.684;9.032;2023-08-31T10:54:12;18.30;58.50
37322;DHT22;23697;48.684;9.032;2023-08-31T10:57:04;18.40;57.00
37322;DHT22;23697;48.684;9.032;2023-08-31T10:59:51;18.10;57.70
37322;DHT22;23697;48.684;9.032;2023-08-31T11:05:54;17.60;60.00
37322;DHT22;23697;48.684;9.032;2023-08-31T11:08:22;17.70;61.10
37322;DHT22;23697;48.684;9.032;2023-08-31T11:10:53;18.20;59.30
37322;DHT22;23697;48.684;9.032;2023-08-31T11:13:33;18.60;59.20
37322;DHT22;23697;48.684;9.032;2023-08-31T11:16:06;18.80;52.50
37322;DHT22;23697;48.684;9.032;2023-08-31T11:18:37;19.00;57.00
37322;DHT22;23697;48.684;9.032;2023-08-31T11:21:05;19.00;56.20
37322;DHT22;23697;48.684;9.032;2023-08-31T11:23:32;18.70;53.30
37322;DHT22;23697;48.684;9.032;2023-08-31T11:25:59;18.60;53.30
37322;DHT22;23697;48.684;9.032;2023-08-31T11:28:32;18.50;54.60
37322;DHT22;23697;48.684;9.032;2023-08-31T11:31:00;18.30;55.80
37322;DHT22;23697;48.684;9.032;2023-08-31T11:33:31;18.30;55.70
37322;DHT22;23697;48.684;9.032;2023-08-31T11:36:20;18.60;60.10
37322;DHT22;23697;48.684;9.032;2023-08-31T11:38:48;18.90;60.10
37322;DHT22;23697;48.684;9.032;2023-08-31T11:41:19;19.10;60.40
37322;DHT22;23697;48.684;9.032;2023-08-31T11:43:48;19.50;54.90
37322;DHT22;23697;48.684;9.032;2023-08-31T11:46:17;19.80;55.00
37322;DHT22;23697;48.684;9.032;2023-08-31T11:48:54;19.80;53.60
37322;DHT22;23697;48.684;9.032;2023-08-31T11:51:49;19.70;49.70
37322;DHT22;23697;48.684;9.032;2023-08-31T11:54:25;19.20;52.20
37322;DHT22;23697;48.684;9.032;2023-08-31T11:56:52;19.30;53.60
37322;DHT22;23697;48.684;9.032;2023-08-31T11:59:19;19.20;53.10
37322;DHT22;23697;48.684;9.032;2023-08-31T12:01:50;19.30;53.60
37322;DHT22;23697;48.684;9.032;2023-08-31T12:04:26;19.70;55.60
37322;DHT22;23697;48.684;9.032;2023-08-31T12:07:20;20.10;54.40
37322;DHT22;23697;48.684;9.032;2023-08-31T12:09:53;20.50;51.70
37322;DHT22;23697;48.684;9.032;2023-08-31T12:12:34;20.50;54.70
37322;DHT22;23697;48.684;9.032;2023-08-31T12:15:30;20.30;53.00
37322;DHT22;23697;48.684;9.032;2023-08-31T12:18:09;20.60;50.80
37322;DHT22;23697;48.684;9.032;2023-08-31T12:21:03;20.80;54.10
37322;DHT22;23697;48.684;9.032;2023-08-31T12:23:44;21.10;52.20
37322;DHT22;23697;48.684;9.032;2023-08-31T12:29:56;20.70;51.40
37322;DHT22;23697;48.684;9.032;2023-08-31T12:35:30;21.30;50.70
37322;DHT22;23697;48.684;9.032;2023-08-31T12:48:50;20.20;52.50
37322;DHT22;23697;48.684;9.032;2023-08-31T12:51:18;19.90;53.30
37322;DHT22;23697;48.684;9.032;2023-08-31T12:53:55;19.80;54.80
37322;DHT22;23697;48.684;9.032;2023-08-31T12:56:24;19.60;50.90
37322;DHT22;23697;48.684;9.032;2023-08-31T12:59:12;19.60;52.10
37322;DHT22;23697;48.684;9.032;2023-08-31T13:01:46;19.50;54.30
37322;DHT22;23697;48.684;9.032;2023-08-31T13:04:15;19.40;52.00
37322;DHT22;23697;48.684;9.032;2023-08-31T13:07:22;19.20;52.70
37322;DHT22;23697;48.684;9.032;2023-08-31T13:10:05;18.90;53.90
37322;DHT22;23697;48.684;9.032;2023-08-31T13:12:43;18.90;57.60
37322;DHT22;23697;48.684;9.032;2023-08-31T13:19:31;18.70;56.10
37322;DHT22;23697;48.684;9.032;2023-08-31T13:22:07;19.40;58.40
37322;DHT22;23697;48.684;9.032;2023-08-31T13:24:37;19.80;53.10
37322;DHT22;23697;48.684;9.032;2023-08-31T13:27:05;20.20;55.10
37322;DHT22;23697;48.684;9.032;2023-08-31T13:50:18;19.40;55.30
37322;DHT22;23697;48.684;9.032;2023-08-31T13:54:07;19.10;56.40
37322;DHT22;23697;48.684;9.032;2023-08-31T14:28:31;18.70;58.40
37322;DHT22;23697;48.684;9.032;2023-08-31T14:31:28;18.90;55.30
37322;DHT22;23697;48.684;9.032;2023-08-31T14:34:23;19.50;54.20
37322;DHT22;23697;48.684;9.032;2023-08-31T14:40:25;20.20;52.70
37322;DHT22;23697;48.684;9.032;2023-08-31T15:14:03;19.50;58.60
